Time;durP1;ratioP1;P1;durP2;ratioP2;P2;SDS_P1;SDS_P2;PMS_P1;PMS_P2;Temp;Humidity;BMP_temperature;BMP_pressure;BME280_temperature;BME280_humidity;BME280_pressure;Samples;Min_cycle;Max_cycle;Signal;HPM_P1;HPM_P2
2024/01/12 00:00:28;;;;;;;87.70;53.03;;;-2.70;1.00;;;;;;5115839;28;20581;-40
2024/01/12 00:02:54;;;;;;;79.27;51.10;;;-2.80;1.00;;;;;;5116600;28;20203;-41
2024/01/12 00:05:19;;;;;;;81.13;52.00;;;-2.90;1.00;;;;;;5115627;28;20204;-41
2024/01/12 00:07:45;;;;;;;93.30;53.63;;;-3.00;1.00;;;;;;5117121;28;20205;-42
2024/01/12 00:10:10;;;;;;;78.43;50.37;;;-3.10;1.00;;;;;;5117309;28;20176;-42
2024/01/12 00:12:36;;;;;;;73.73;49.93;;;-3.10;1.00;;;;;;5117604;28;20194;-42
2024/01/12 00:15:03;;;;;;;78.70;49.87;;;-3.20;1.00;;;;;;5117470;28;20172;-41
2024/01/12 00:17:29;;;;;;;71.43;47.70;;;-3.30;99.90;;;;;;5117339;28;20414;-40
2024/01/12 00:19:54;;;;;;;78.87;47.40;;;-3.40;99.90;;;;;;5117394;28;20444;-45
2024/01/12 00:22:20;;;;;;;73.53;49.80;;;-3.40;99.90;;;;;;5116945;28;20751;-41
2024/01/12 00:24:46;;;;;;;72.37;47.20;;;-3.50;99.90;;;;;;5116531;28;20191;-41
2024/01/12 00:27:12;;;;;;;72.83;46.77;;;-3.60;1.00;;;;;;5117155;28;20203;-44
2024/01/12 00:29:37;;;;;;;67.97;46.07;;;-3.60;1.00;;;;;;5116112;28;20826;-44
2024/01/12 00:32:05;;;;;;;74.13;47.70;;;-3.60;1.00;;;;;;5117845;28;20184;-46
2024/01/12 00:34:31;;;;;;;69.07;44.03;;;-3.70;32.70;;;;;;5116608;28;20191;-41
2024/01/12 00:36:57;;;;;;;65.03;41.97;;;-3.60;99.90;;;;;;5115237;28;20688;-43
2024/01/12 00:39:23;;;;;;;59.87;41.37;;;-3.60;1.00;;;;;;5115847;28;20461;-39
2024/01/12 00:41:50;;;;;;;60.07;41.20;;;-3.60;1.00;;;;;;5115585;28;20199;-40
2024/01/12 00:44:18;;;;;;;63.63;39.07;;;-3.70;1.00;;;;;;5114232;28;20540;-40
2024/01/12 00:46:50;;;;;;;60.73;40.13;;;-3.70;1.00;;;;;;5115956;28;20842;-41
2024/01/12 00:49:18;;;;;;;72.60;44.27;;;-3.70;1.00;;;;;;5116221;28;20421;-41
2024/01/12 00:51:44;;;;;;;64.30;42.17;;;-3.80;1.00;;;;;;5116339;28;20524;-42
2024/01/12 00:54:10;;;;;;;58.80;39.00;;;-3.80;1.00;;;;;;5115926;28;20427;-41
2024/01/12 00:56:36;;;;;;;64.40;40.93;;;-3.80;1.00;;;;;;5116978;28;20425;-41
2024/01/12 00:59:02;;;;;;;58.80;38.23;;;-3.80;99.90;;;;;;5116661;28;20323;-42
2024/01/12 01:01:28;;;;;;;61.53;39.30;;;-3.80;99.90;;;;;;5115965;28;20540;-40
2024/01/12 01:03:54;;;;;;;56.67;40.77;;;-3.80;99.90;;;;;;5116579;28;20291;-41
2024/01/12 01:06:19;;;;;;;61.00;39.93;;;-3.80;99.90;;;;;;5116505;28;20245;-40
2024/01/12 01:08:45;;;;;;;61.60;40.43;;;-3.80;99.90;;;;;;5116606;28;20563;-42
2024/01/12 01:11:11;;;;;;;64.33;40.70;;;-3.90;99.90;;;;;;5116375;28;20179;-41
2024/01/12 01:13:37;;;;;;;60.13;40.47;;;-3.90;99.90;;;;;;5116635;28;20436;-42
2024/01/12 01:16:03;;;;;;;60.77;41.37;;;-3.90;1.00;;;;;;5116879;28;20199;-42
2024/01/12 01:18:30;;;;;;;59.63;38.70;;;-4.00;1.00;;;;;;5116189;28;20207;-43
2024/01/12 01:20:59;;;;;;;58.40;39.73;;;-4.00;99.90;;;;;;5115030;28;20637;-43
2024/01/12 01:23:24;;;;;;;56.73;37.07;;;-4.00;99.90;;;;;;5113452;28;20501;-40
2024/01/12 01:25:50;;;;;;;60.23;40.10;;;-4.10;53.60;;;;;;5114914;28;20740;-42
2024/01/12 01:28:16;;;;;;;60.60;36.50;;;-4.10;99.90;;;;;;5115715;28;20260;-40
2024/01/12 01:30:42;;;;;;;58.57;42.03;;;-4.10;99.90;;;;;;5097549;28;20433;-39
2024/01/12 01:33:07;;;;;;;64.60;40.53;;;-4.10;99.90;;;;;;5113995;28;20190;-43
2024/01/12 01:35:33;;;;;;;64.33;41.40;;;-4.10;99.90;;;;;;5115028;28;20180;-41
2024/01/12 01:37:59;;;;;;;60.80;42.00;;;-4.20;1.00;;;;;;5114848;28;20577;-40
2024/01/12 01:40:25;;;;;;;62.77;41.37;;;-4.20;1.00;;;;;;5115129;28;20176;-38
2024/01/12 01:42:51;;;;;;;62.20;40.50;;;-4.20;1.00;;;;;;5097303;28;20200;-40
2024/01/12 01:45:18;;;;;;;65.70;41.53;;;-4.20;1.00;;;;;;5115546;28;20425;-40
2024/01/12 01:47:45;;;;;;;66.10;40.33;;;-4.20;1.00;;;;;;5115128;28;20195;-40
2024/01/12 01:50:12;;;;;;;55.07;38.40;;;-4.20;1.00;;;;;;5114075;28;20533;-43
2024/01/12 01:52:38;;;;;;;64.27;40.37;;;-4.20;48.50;;;;;;5114668;28;20445;-40
2024/01/12 01:55:04;;;;;;;59.77;39.27;;;-4.20;5.70;;;;;;5115372;28;20742;-41
2024/01/12 01:57:30;;;;;;;54.50;39.70;;;-4.20;1.00;;;;;;5116007;28;20468;-40
2024/01/12 01:59:56;;;;;;;60.07;38.43;;;-4.20;1.00;;;;;;5114673;28;20874;-43
2024/01/12 02:02:22;;;;;;;55.57;38.60;;;-4.30;1.00;;;;;;5097997;28;20300;-41
2024/01/12 02:04:50;;;;;;;62.27;39.30;;;-4.30;1.00;;;;;;5116306;28;20547;-42
2024/01/12 02:07:16;;;;;;;59.57;39.57;;;-4.30;1.00;;;;;;5115268;28;20440;-41
2024/01/12 02:09:42;;;;;;;55.57;37.93;;;-4.30;1.00;;;;;;5115256;28;20509;-41
2024/01/12 02:12:08;;;;;;;60.83;40.30;;;-4.30;1.00;;;;;;5115028;28;20262;-44
2024/01/12 02:14:34;;;;;;;58.67;39.00;;;-4.30;1.00;;;;;;5118666;28;20529;-40
2024/01/12 02:16:59;;;;;;;59.20;40.30;;;-4.30;1.00;;;;;;5119725;28;20508;-40
2024/01/12 02:19:25;;;;;;;64.00;39.80;;;-4.30;99.90;;;;;;5120115;28;20207;-40
2024/01/12 02:21:52;;;;;;;52.63;35.90;;;-4.40;99.90;;;;;;5119136;28;20223;-41
2024/01/12 02:24:17;;;;;;;57.57;38.83;;;-4.40;99.90;;;;;;5118580;28;20179;-40
2024/01/12 02:26:43;;;;;;;61.40;38.07;;;-4.40;99.90;;;;;;5118852;28;20440;-40
2024/01/12 02:29:08;;;;;;;59.73;36.83;;;-4.40;99.90;;;;;;5119188;28;20171;-40
2024/01/12 02:31:34;;;;;;;54.50;37.97;;;-4.40;99.90;;;;;;5119452;28;20597;-43
2024/01/12 02:34:01;;;;;;;58.70;37.57;;;-4.50;1.00;;;;;;5118799;28;20279;-42
2024/01/12 02:36:27;;;;;;;57.40;37.97;;;-4.50;1.00;;;;;;5117779;28;20188;-42
2024/01/12 02:38:54;;;;;;;57.43;38.90;;;-4.50;1.00;;;;;;5118195;28;20421;-41
2024/01/12 02:41:20;;;;;;;53.70;35.97;;;-4.50;99.90;;;;;;5118792;27;20487;-40
2024/01/12 02:43:46;;;;;;;57.77;37.77;;;-4.50;99.90;;;;;;5118179;28;20508;-41
2024/01/12 02:46:12;;;;;;;57.90;37.23;;;-4.50;99.90;;;;;;5119273;27;20202;-40
2024/01/12 02:48:37;;;;;;;57.63;35.60;;;-4.50;99.90;;;;;;5119200;28;20883;-43
2024/01/12 02:51:03;;;;;;;59.80;37.40;;;-4.50;99.90;;;;;;5117892;28;20253;-42
2024/01/12 02:53:29;;;;;;;58.83;37.63;;;-4.60;99.90;;;;;;5118878;28;20180;-41
2024/01/12 02:55:54;;;;;;;59.37;37.30;;;-4.60;99.90;;;;;;5117493;28;20421;-43
2024/01/12 02:58:20;;;;;;;58.53;37.73;;;-4.60;99.90;;;;;;5118588;28;20187;-42
2024/01/12 03:00:45;;;;;;;58.07;38.20;;;-4.60;99.90;;;;;;5117152;28;20180;-41
2024/01/12 03:03:11;;;;;;;58.50;37.60;;;-4.50;99.90;;;;;;5118228;28;20310;-41
2024/01/12 03:05:36;;;;;;;54.30;36.47;;;-4.50;99.90;;;;;;5118376;28;20254;-44
2024/01/12 03:08:02;;;;;;;56.23;37.10;;;-4.50;99.90;;;;;;5117607;28;20184;-42
2024/01/12 03:10:27;;;;;;;64.97;40.00;;;-4.50;99.90;;;;;;5118864;28;20211;-39
2024/01/12 03:12:53;;;;;;;55.63;37.17;;;-4.60;99.90;;;;;;5118478;28;20183;-43
2024/01/12 03:15:19;;;;;;;59.03;39.93;;;-4.60;1.00;;;;;;5118422;28;20184;-42
2024/01/12 03:17:44;;;;;;;61.70;37.43;;;-4.60;1.00;;;;;;5118396;28;20580;-40
2024/01/12 03:20:10;;;;;;;54.27;37.90;;;-4.60;1.00;;;;;;5118514;28;20267;-40
2024/01/12 03:22:36;;;;;;;57.77;36.37;;;-4.70;1.00;;;;;;5118383;28;20213;-41
2024/01/12 03:25:02;;;;;;;54.10;37.40;;;-4.70;1.00;;;;;;5118153;28;20262;-42
2024/01/12 03:27:27;;;;;;;55.97;37.77;;;-4.60;99.90;;;;;;5118101;28;20460;-41
2024/01/12 03:29:53;;;;;;;53.30;37.20;;;-4.70;99.90;;;;;;5118211;28;20384;-41
2024/01/12 03:32:20;;;;;;;54.77;34.87;;;-4.70;99.90;;;;;;5118306;28;20188;-43
2024/01/12 03:34:46;;;;;;;61.67;38.10;;;-4.70;99.90;;;;;;5118213;28;20275;-42
2024/01/12 03:37:11;;;;;;;56.80;37.70;;;-4.70;99.90;;;;;;5117887;28;20457;-41
2024/01/12 03:39:37;;;;;;;55.37;37.40;;;-4.70;99.90;;;;;;5116999;28;20260;-40
2024/01/12 03:42:02;;;;;;;61.10;39.10;;;-4.70;1.00;;;;;;5117063;28;20431;-43
2024/01/12 03:44:28;;;;;;;58.67;37.87;;;-4.70;99.90;;;;;;5117925;28;20582;-40
2024/01/12 03:46:53;;;;;;;65.43;38.67;;;-4.70;99.90;;;;;;5116385;28;20172;-41
2024/01/12 03:49:19;;;;;;;58.00;36.80;;;-4.70;99.90;;;;;;5117172;28;20206;-41
2024/01/12 03:51:47;;;;;;;57.30;39.47;;;-4.70;99.90;;;;;;5116992;28;20458;-40
2024/01/12 03:54:12;;;;;;;65.03;38.57;;;-4.80;99.90;;;;;;5117039;28;20179;-40
2024/01/12 03:56:38;;;;;;;58.17;37.50;;;-4.80;99.90;;;;;;5117566;28;20501;-40
2024/01/12 03:59:03;;;;;;;57.97;38.17;;;-4.80;99.90;;;;;;5117718;28;20614;-42
2024/01/12 04:01:29;;;;;;;62.40;36.77;;;-4.80;1.00;;;;;;5117234;28;20242;-41
2024/01/12 04:03:54;;;;;;;56.40;37.27;;;-4.80;1.00;;;;;;5116790;28;20199;-43
2024/01/12 04:06:20;;;;;;;61.67;38.93;;;-4.80;1.00;;;;;;5116299;28;20262;-41
2024/01/12 04:08:46;;;;;;;58.23;37.23;;;-4.90;1.00;;;;;;5117573;28;20205;-42
2024/01/12 04:11:21;;;;;;;59.13;37.77;;;-4.90;1.00;;;;;;5116076;28;20180;-40
2024/01/12 04:13:46;;;;;;;59.97;39.10;;;-4.90;1.00;;;;;;5116181;28;20543;-41
2024/01/12 04:16:12;;;;;;;57.50;36.47;;;-4.90;1.00;;;;;;5117645;28;20486;-43
2024/01/12 04:18:37;;;;;;;56.47;37.83;;;-5.00;1.00;;;;;;5117056;28;20180;-41
2024/01/12 04:21:03;;;;;;;53.30;36.67;;;-4.90;1.00;;;;;;5115760;28;20195;-41
2024/01/12 04:23:29;;;;;;;57.83;36.20;;;-5.00;1.00;;;;;;5117209;28;20247;-43
2024/01/12 04:25:54;;;;;;;58.80;37.43;;;-5.00;1.00;;;;;;5116913;28;20740;-42
2024/01/12 04:28:20;;;;;;;56.73;35.13;;;-5.00;1.00;;;;;;5115176;28;20247;-40
2024/01/12 04:30:45;;;;;;;61.13;36.20;;;-5.10;1.00;;;;;;5115270;28;20189;-42
2024/01/12 04:33:11;;;;;;;56.17;36.67;;;-5.10;1.00;;;;;;5115336;28;20266;-41
2024/01/12 04:35:36;;;;;;;56.57;36.83;;;-5.10;1.00;;;;;;5115791;28;20269;-41
2024/01/12 04:38:02;;;;;;;53.77;35.53;;;-5.10;1.00;;;;;;5115496;28;20171;-43
2024/01/12 04:40:28;;;;;;;57.00;39.23;;;-5.10;1.00;;;;;;5115665;28;20176;-41
2024/01/12 04:42:53;;;;;;;59.07;37.70;;;-5.00;17.80;;;;;;5114026;28;20219;-41
2024/01/12 04:45:19;;;;;;;57.27;35.67;;;-5.00;12.10;;;;;;5114341;28;20209;-45
2024/01/12 04:47:44;;;;;;;55.70;34.83;;;-5.10;35.20;;;;;;5115642;28;20172;-45
2024/01/12 04:50:10;;;;;;;57.50;36.00;;;-5.10;94.60;;;;;;5115726;28;20176;-42
2024/01/12 04:52:35;;;;;;;57.83;37.10;;;-5.10;99.90;;;;;;5115132;28;20251;-41
2024/01/12 04:55:01;;;;;;;53.67;34.30;;;-5.10;99.90;;;;;;5116021;28;20194;-43
2024/01/12 04:57:26;;;;;;;54.60;35.83;;;-5.10;99.90;;;;;;5115377;28;20271;-41
2024/01/12 04:59:52;;;;;;;64.47;37.23;;;-5.00;99.90;;;;;;5116104;28;20278;-41
2024/01/12 05:02:18;;;;;;;61.67;38.80;;;-5.10;1.00;;;;;;5116335;28;20212;-42
2024/01/12 05:04:43;;;;;;;56.47;36.40;;;-5.10;1.00;;;;;;5115761;28;20194;-44
2024/01/12 05:07:09;;;;;;;55.07;37.60;;;-5.10;1.00;;;;;;5111407;28;20568;-41
2024/01/12 05:09:34;;;;;;;56.07;37.20;;;-5.10;1.00;;;;;;5115877;28;20262;-40
2024/01/12 05:12:04;;;;;;;51.53;35.40;;;-5.10;1.00;;;;;;5115545;28;20198;-42
2024/01/12 05:14:31;;;;;;;56.17;34.37;;;-5.10;1.00;;;;;;5114071;28;20168;-43
2024/01/12 05:16:56;;;;;;;54.60;36.60;;;-5.10;1.00;;;;;;5112750;28;20434;-41
2024/01/12 05:19:22;;;;;;;62.83;36.53;;;-5.10;1.00;;;;;;5113740;28;20903;-41
2024/01/12 05:21:47;;;;;;;53.60;35.30;;;-5.10;1.00;;;;;;5113061;28;20232;-41
2024/01/12 05:24:13;;;;;;;53.80;35.20;;;-5.10;99.90;;;;;;5112993;28;20458;-42
2024/01/12 05:26:38;;;;;;;55.87;36.03;;;-5.20;1.00;;;;;;5110313;28;20179;-42
2024/01/12 05:29:05;;;;;;;53.07;35.43;;;-5.20;1.00;;;;;;5109908;28;20176;-43
2024/01/12 05:31:31;;;;;;;52.77;32.87;;;-5.20;1.00;;;;;;5111411;28;20190;-41
2024/01/12 05:33:56;;;;;;;53.37;35.27;;;-5.20;1.00;;;;;;5112382;28;20425;-40
2024/01/12 05:36:22;;;;;;;58.40;36.27;;;-5.20;1.00;;;;;;5113423;28;20211;-43
2024/01/12 05:38:47;;;;;;;56.03;36.40;;;-5.10;1.00;;;;;;5110406;28;20236;-43
2024/01/12 05:41:14;;;;;;;59.77;36.60;;;-5.20;1.00;;;;;;5111578;28;20597;-44
2024/01/12 05:43:39;;;;;;;56.37;36.13;;;-5.20;1.00;;;;;;5111020;28;20170;-43
2024/01/12 05:46:06;;;;;;;56.40;37.37;;;-5.20;1.00;;;;;;5111790;28;20421;-46
2024/01/12 05:48:33;;;;;;;53.67;35.33;;;-5.20;99.90;;;;;;5113790;28;20455;-42
2024/01/12 05:50:58;;;;;;;51.07;35.27;;;-5.30;99.90;;;;;;5116972;28;20803;-41
2024/01/12 05:53:25;;;;;;;52.60;35.07;;;-5.30;99.90;;;;;;5115190;28;20401;-41
2024/01/12 05:55:52;;;;;;;55.17;36.37;;;-5.40;99.90;;;;;;5115203;28;20576;-42
2024/01/12 05:58:18;;;;;;;57.23;37.67;;;-5.40;1.00;;;;;;5115184;28;20428;-41
2024/01/12 06:00:44;;;;;;;58.17;35.80;;;-5.40;1.00;;;;;;5115453;28;20758;-43
2024/01/12 06:03:09;;;;;;;60.37;37.80;;;-5.40;1.00;;;;;;5116721;28;20568;-41
2024/01/12 06:05:35;;;;;;;55.10;35.57;;;-5.40;1.00;;;;;;5116794;28;20180;-44
2024/01/12 06:08:00;;;;;;;57.93;36.60;;;-5.40;1.00;;;;;;5117263;28;20691;-41
2024/01/12 06:10:26;;;;;;;55.37;34.47;;;-5.40;1.00;;;;;;5115994;28;20508;-42
2024/01/12 06:12:53;;;;;;;54.47;34.70;;;-5.40;1.00;;;;;;5115446;28;20199;-43
2024/01/12 06:15:19;;;;;;;51.73;34.13;;;-5.40;1.00;;;;;;5116854;28;20190;-41
2024/01/12 06:17:44;;;;;;;54.63;35.50;;;-5.40;1.00;;;;;;5115917;28;20508;-40
2024/01/12 06:20:10;;;;;;;56.77;36.50;;;-5.30;99.90;;;;;;5115519;28;20427;-42
2024/01/12 06:22:36;;;;;;;57.50;36.80;;;-5.40;99.90;;;;;;5116803;28;20218;-43
2024/01/12 06:25:02;;;;;;;54.50;36.50;;;-5.40;99.90;;;;;;5115257;28;20426;-43
2024/01/12 06:27:27;;;;;;;60.30;34.63;;;-5.40;99.90;;;;;;5113737;28;20449;-43
2024/01/12 06:29:53;;;;;;;54.63;33.47;;;-5.40;99.90;;;;;;5117343;28;20175;-44
2024/01/12 06:32:18;;;;;;;56.23;35.53;;;-5.40;99.90;;;;;;5117543;28;20198;-42
2024/01/12 06:34:44;;;;;;;54.10;35.73;;;-5.40;99.90;;;;;;5115080;28;20324;-42
2024/01/12 06:37:09;;;;;;;61.03;36.70;;;-5.40;99.90;;;;;;5096749;28;20201;-41
2024/01/12 06:39:36;;;;;;;59.43;36.53;;;-5.40;99.90;;;;;;5094920;28;20188;-44
2024/01/12 06:42:02;;;;;;;55.77;35.83;;;-5.40;99.90;;;;;;5093960;28;20204;-40
2024/01/12 06:44:27;;;;;;;57.30;36.10;;;-5.50;99.90;;;;;;5093654;28;20829;-43
2024/01/12 06:46:53;;;;;;;61.03;38.07;;;-5.40;99.90;;;;;;5093232;28;20651;-42
2024/01/12 06:49:18;;;;;;;63.17;38.30;;;-5.40;99.90;;;;;;5094781;28;20184;-45
2024/01/12 06:51:44;;;;;;;65.33;39.10;;;-5.40;99.90;;;;;;5094237;28;20185;-42
2024/01/12 06:54:10;;;;;;;59.13;37.30;;;-5.40;1.00;;;;;;5094507;28;20199;-43
2024/01/12 06:56:37;;;;;;;58.43;37.00;;;-5.40;1.00;;;;;;5094392;28;20181;-46
2024/01/12 06:59:04;;;;;;;60.30;36.87;;;-5.50;1.00;;;;;;5091753;28;20450;-41
2024/01/12 07:01:29;;;;;;;56.40;36.13;;;-5.50;1.00;;;;;;5093760;28;20474;-41
2024/01/12 07:03:55;;;;;;;57.33;36.30;;;-5.50;1.00;;;;;;5094311;28;20441;-41
2024/01/12 07:06:20;;;;;;;61.53;36.50;;;-5.50;1.00;;;;;;5096573;28;20188;-40
2024/01/12 07:08:46;;;;;;;54.90;37.00;;;-5.50;1.00;;;;;;5096052;28;20299;-43
2024/01/12 07:11:12;;;;;;;50.37;34.60;;;-5.50;1.00;;;;;;5096350;28;20551;-42
2024/01/12 07:13:37;;;;;;;47.20;33.37;;;-5.50;1.00;;;;;;5095176;28;20746;-42
2024/01/12 07:16:04;;;;;;;57.13;34.37;;;-5.50;1.00;;;;;;5095547;28;20490;-42
2024/01/12 07:18:29;;;;;;;61.20;35.10;;;-5.50;1.00;;;;;;5096742;28;20180;-39
2024/01/12 07:20:57;;;;;;;54.70;35.47;;;-5.50;1.00;;;;;;5095368;28;20811;-40
2024/01/12 07:23:23;;;;;;;58.70;36.40;;;-5.50;1.00;;;;;;5094736;28;20165;-43
2024/01/12 07:25:48;;;;;;;56.63;36.80;;;-5.50;1.00;;;;;;5094218;28;20518;-43
2024/01/12 07:28:15;;;;;;;58.83;36.33;;;-5.40;1.00;;;;;;5095679;28;20480;-40
2024/01/12 07:30:40;;;;;;;57.20;38.07;;;-5.40;1.00;;;;;;5096668;28;20562;-40
2024/01/12 07:33:06;;;;;;;54.20;35.53;;;-5.30;1.00;;;;;;5095659;28;20410;-42
2024/01/12 07:35:32;;;;;;;54.33;34.90;;;-5.30;1.00;;;;;;5094658;28;20183;-40
2024/01/12 07:37:57;;;;;;;57.90;38.20;;;-5.20;1.00;;;;;;5094311;28;20189;-40
2024/01/12 07:40:23;;;;;;;61.97;37.53;;;-5.20;99.90;;;;;;5096066;28;20220;-41
2024/01/12 07:42:48;;;;;;;59.23;38.27;;;-5.20;99.90;;;;;;5078462;28;20294;-41
2024/01/12 07:45:14;;;;;;;56.17;37.80;;;-5.10;99.90;;;;;;5095723;28;20180;-43
2024/01/12 07:47:40;;;;;;;58.07;40.17;;;-5.00;99.90;;;;;;5095813;28;20176;-39
2024/01/12 07:50:07;;;;;;;57.60;36.30;;;-4.90;99.90;;;;;;5095409;28;20521;-43
2024/01/12 07:52:32;;;;;;;57.33;38.13;;;-4.80;99.90;;;;;;5095413;28;20188;-43
2024/01/12 07:54:58;;;;;;;58.80;37.30;;;-4.60;99.90;;;;;;5094572;28;20460;-40
2024/01/12 07:57:23;;;;;;;57.93;38.43;;;-4.40;99.90;;;;;;5096171;28;20187;-40
2024/01/12 07:59:49;;;;;;;54.40;34.97;;;-4.20;99.90;;;;;;5094594;28;20434;-41
2024/01/12 08:02:15;;;;;;;51.17;35.57;;;-3.90;1.00;;;;;;5095774;28;20223;-40
2024/01/12 08:04:41;;;;;;;58.10;36.53;;;-3.70;99.90;;;;;;5096450;28;20289;-41
2024/01/12 08:07:06;;;;;;;53.10;35.97;;;-3.40;1.00;;;;;;5095779;28;20450;-42
2024/01/12 08:09:32;;;;;;;58.57;38.30;;;-3.10;99.90;;;;;;5096140;28;20234;-41
2024/01/12 08:11:58;;;;;;;57.23;36.40;;;-2.80;99.90;;;;;;5093683;28;20184;-42
2024/01/12 08:14:23;;;;;;;56.17;36.10;;;-2.40;1.00;;;;;;5095933;28;20411;-44
2024/01/12 08:16:49;;;;;;;63.80;38.33;;;-2.10;99.90;;;;;;5095927;28;20269;-42
2024/01/12 08:19:15;;;;;;;49.80;36.57;;;-1.80;81.50;;;;;;5096049;28;20271;-41
2024/01/12 08:21:41;;;;;;;50.80;36.00;;;-1.40;1.00;;;;;;5093444;28;20902;-40
2024/01/12 08:24:06;;;;;;;54.90;37.10;;;-1.00;99.90;;;;;;5095996;28;20164;-40
2024/01/12 08:26:32;;;;;;;53.07;38.30;;;-0.70;1.00;;;;;;5094786;28;20693;-40
2024/01/12 08:29:01;;;;;;;54.13;37.80;;;-0.30;99.90;;;;;;5094901;28;20256;-44
2024/01/12 08:31:29;;;;;;;55.07;37.43;;;0.00;99.90;;;;;;5094583;28;20275;-40
2024/01/12 08:33:55;;;;;;;65.80;40.43;;;0.30;99.90;;;;;;5094582;28;20849;-40
2024/01/12 08:36:21;;;;;;;56.03;39.30;;;0.50;1.00;;;;;;5094532;28;20450;-42
2024/01/12 08:38:46;;;;;;;52.97;37.83;;;0.50;1.00;;;;;;5092839;28;20160;-41
2024/01/12 08:41:12;;;;;;;54.33;39.50;;;0.70;1.00;;;;;;5093549;28;20188;-41
2024/01/12 08:43:37;;;;;;;51.90;36.40;;;1.10;1.00;;;;;;5094019;28;20176;-41
2024/01/12 08:46:03;;;;;;;54.70;38.33;;;1.40;1.00;;;;;;5095254;28;20485;-40
2024/01/12 08:48:29;;;;;;;53.17;39.10;;;1.80;1.00;;;;;;5093070;28;20237;-41
2024/01/12 08:50:54;;;;;;;56.83;40.77;;;2.30;1.00;;;;;;5093514;28;20244;-41
2024/01/12 08:53:20;;;;;;;53.93;39.53;;;2.40;1.00;;;;;;5094104;28;20433;-42
2024/01/12 08:55:46;;;;;;;55.17;41.27;;;2.70;1.00;;;;;;5093544;28;20184;-41
2024/01/12 08:58:11;;;;;;;59.10;44.97;;;3.20;1.00;;;;;;5094385;28;20230;-43
2024/01/12 09:00:37;;;;;;;50.83;39.10;;;3.50;1.00;;;;;;5094856;28;20434;-42
2024/01/12 09:03:03;;;;;;;50.20;38.00;;;3.80;1.00;;;;;;5093932;28;20485;-42
2024/01/12 09:05:28;;;;;;;51.47;37.70;;;4.20;1.00;;;;;;5094163;28;20184;-41
2024/01/12 09:07:54;;;;;;;49.23;39.57;;;4.40;1.00;;;;;;5093166;28;20430;-43
2024/01/12 09:10:19;;;;;;;50.40;38.77;;;4.70;1.00;;;;;;5093290;28;20224;-42
2024/01/12 09:12:45;;;;;;;47.73;39.03;;;4.90;1.00;;;;;;5092736;28;20195;-43
2024/01/12 09:15:11;;;;;;;47.33;37.07;;;5.20;1.00;;;;;;5092645;28;20259;-44
2024/01/12 09:17:37;;;;;;;49.47;37.53;;;5.40;1.00;;;;;;5094031;28;20239;-44
2024/01/12 09:20:03;;;;;;;46.03;35.93;;;5.30;1.00;;;;;;5095290;28;20769;-41
2024/01/12 09:22:28;;;;;;;47.60;35.90;;;5.60;1.00;;;;;;5096537;28;20714;-41
2024/01/12 09:24:54;;;;;;;44.67;35.27;;;5.80;1.00;;;;;;5098645;28;20410;-45
2024/01/12 09:27:19;;;;;;;21.27;17.97;;;6.00;1.00;;;;;;5098931;28;20191;-44
2024/01/12 09:29:45;;;;;;;31.90;26.73;;;7.90;1.00;;;;;;5098581;28;20179;-42
2024/01/12 09:32:11;;;;;;;43.00;33.87;;;9.80;1.00;;;;;;5098438;28;20188;-44
2024/01/12 09:34:36;;;;;;;44.03;35.83;;;10.80;1.00;;;;;;5098891;28;20433;-44
2024/01/12 09:37:02;;;;;;;39.47;34.27;;;10.90;1.00;;;;;;5097362;28;20192;-42
2024/01/12 09:39:28;;;;;;;43.27;34.97;;;10.50;1.00;;;;;;5097653;28;20279;-40
2024/01/12 09:42:04;;;;;;;44.33;37.07;;;10.30;1.00;;;;;;5097591;28;20215;-42
2024/01/12 09:44:34;;;;;;;53.30;40.33;;;10.30;1.00;;;;;;5097591;28;20294;-41
2024/01/12 09:46:59;;;;;;;42.37;37.87;;;9.80;1.00;;;;;;5096703;28;20430;-44
2024/01/12 09:49:31;;;;;;;42.70;37.40;;;9.50;1.00;;;;;;5097608;28;20430;-41
2024/01/12 09:52:01;;;;;;;44.20;36.60;;;9.30;1.00;;;;;;5098269;28;20192;-40
2024/01/12 09:54:27;;;;;;;41.43;36.20;;;9.70;1.00;;;;;;5098414;28;20505;-41
2024/01/12 09:56:53;;;;;;;42.40;37.77;;;10.10;1.00;;;;;;5097776;28;20460;-42
2024/01/12 09:59:21;;;;;;;43.23;37.97;;;10.60;1.00;;;;;;5095830;28;20570;-43
2024/01/12 10:01:48;;;;;;;43.80;36.90;;;11.60;1.00;;;;;;5095877;28;20492;-42
2024/01/12 10:04:14;;;;;;;41.93;37.37;;;12.50;1.00;;;;;;5095896;28;20479;-41
2024/01/12 10:06:40;;;;;;;39.30;34.90;;;13.10;1.00;;;;;;5107357;28;20806;-45
2024/01/12 10:09:08;;;;;;;42.93;38.40;;;13.90;1.00;;;;;;5117082;28;20485;-42
2024/01/12 10:11:34;;;;;;;41.50;37.10;;;14.70;1.00;;;;;;5117733;28;20428;-41
2024/01/12 10:13:59;;;;;;;43.77;37.40;;;15.20;1.00;;;;;;5117258;28;20417;-43
2024/01/12 10:16:31;;;;;;;41.73;37.00;;;15.90;1.00;;;;;;5117037;28;20184;-43
2024/01/12 10:19:00;;;;;;;38.10;34.20;;;15.90;1.00;;;;;;5116099;28;20187;-41
2024/01/12 10:21:26;;;;;;;38.87;34.90;;;16.40;1.00;;;;;;5115620;28;20896;-45
2024/01/12 10:24:03;;;;;;;38.70;34.50;;;17.20;1.00;;;;;;5115966;28;20437;-42
2024/01/12 10:26:29;;;;;;;40.30;36.17;;;17.50;1.00;;;;;;5117014;28;20167;-42
2024/01/12 10:28:54;;;;;;;40.23;36.13;;;17.00;1.00;;;;;;5115956;28;20420;-42
2024/01/12 10:31:20;;;;;;;40.50;36.27;;;17.10;1.00;;;;;;5115073;28;20249;-42
2024/01/12 10:33:46;;;;;;;40.80;35.60;;;17.20;1.00;;;;;;5114363;28;20187;-43
2024/01/12 10:36:17;;;;;;;43.00;38.53;;;17.60;1.00;;;;;;5115473;28;20730;-44
2024/01/12 10:38:44;;;;;;;42.07;37.70;;;17.60;1.00;;;;;;5117429;28;20446;-43
2024/01/12 10:41:11;;;;;;;44.10;39.50;;;17.60;1.00;;;;;;5117400;28;20444;-42
2024/01/12 10:43:38;;;;;;;59.70;48.00;;;17.50;1.00;;;;;;5117330;28;20422;-42
2024/01/12 10:46:16;;;;;;;46.53;41.60;;;17.60;1.00;;;;;;5114369;28;20777;-41
2024/01/12 10:48:51;;;;;;;89.90;67.37;;;17.30;1.00;;;;;;5112814;28;20464;-42
2024/01/12 10:51:19;;;;;;;61.87;49.60;;;16.90;1.00;;;;;;5114808;28;20410;-40
2024/01/12 10:54:01;;;;;;;43.60;39.10;;;16.70;1.00;;;;;;5114658;28;20409;-43
2024/01/12 10:56:28;;;;;;;44.53;39.83;;;16.60;1.00;;;;;;5116580;28;20422;-43
2024/01/12 10:58:54;;;;;;;43.87;39.13;;;16.60;1.00;;;;;;5115640;28;20425;-43
2024/01/12 11:01:20;;;;;;;42.27;37.97;;;16.20;1.00;;;;;;5115575;28;20704;-42
2024/01/12 11:03:46;;;;;;;41.03;36.97;;;16.50;1.00;;;;;;5114945;28;20182;-43
2024/01/12 11:06:13;;;;;;;40.30;36.40;;;16.90;1.00;;;;;;5114024;28;20647;-44
2024/01/12 11:08:39;;;;;;;40.87;36.50;;;16.90;1.00;;;;;;5113593;28;20402;-40
2024/01/12 11:11:05;;;;;;;41.80;37.70;;;17.10;1.00;;;;;;5115407;28;20725;-44
2024/01/12 11:13:31;;;;;;;45.73;41.30;;;17.10;1.00;;;;;;5117265;28;20425;-42
2024/01/12 11:15:57;;;;;;;42.23;38.03;;;17.30;1.00;;;;;;5112973;28;20762;-44
2024/01/12 11:18:25;;;;;;;39.20;35.50;;;17.70;1.00;;;;;;5114718;28;20466;-44
2024/01/12 11:21:00;;;;;;;40.93;36.93;;;18.00;1.00;;;;;;5111449;28;20195;-44
2024/01/12 11:23:26;;;;;;;40.67;36.80;;;18.40;1.00;;;;;;5112738;28;20515;-41
2024/01/12 11:25:52;;;;;;;40.00;36.30;;;18.90;1.00;;;;;;5117058;28;20497;-45
2024/01/12 11:28:18;;;;;;;43.73;39.53;;;19.60;1.00;;;;;;5116140;28;20187;-41
2024/01/12 11:30:49;;;;;;;41.47;37.53;;;19.70;1.00;;;;;;5112900;28;20413;-41
2024/01/12 11:33:17;;;;;;;41.03;36.93;;;20.00;1.00;;;;;;5097244;28;20179;-41
2024/01/12 11:35:45;;;;;;;42.90;38.80;;;20.60;1.00;;;;;;5116438;28;20401;-41
2024/01/12 11:38:12;;;;;;;45.97;41.60;;;21.30;1.00;;;;;;5114665;28;20419;-45
2024/01/12 11:40:37;;;;;;;47.40;42.57;;;21.10;1.00;;;;;;5115758;28;20764;-47
2024/01/12 11:43:03;;;;;;;49.27;44.17;;;21.50;1.00;;;;;;5115712;28;20492;-42
2024/01/12 11:45:29;;;;;;;46.60;41.87;;;21.40;1.00;;;;;;5117170;28;20198;-42
2024/01/12 11:47:55;;;;;;;46.20;41.90;;;21.50;1.00;;;;;;5116924;28;20417;-44
2024/01/12 11:50:24;;;;;;;45.73;41.07;;;21.30;1.00;;;;;;5116071;28;20516;-44
2024/01/12 11:52:58;;;;;;;50.93;45.67;;;21.50;1.00;;;;;;5115510;28;20413;-43
2024/01/12 11:55:24;;;;;;;53.27;48.20;;;21.40;1.00;;;;;;5114887;28;20711;-41
2024/01/12 11:57:52;;;;;;;44.10;39.90;;;21.40;1.00;;;;;;5114209;28;20456;-42
2024/01/12 12:00:18;;;;;;;47.37;42.77;;;21.30;1.00;;;;;;5115181;28;20583;-43
2024/01/12 12:02:44;;;;;;;45.00;40.57;;;21.40;1.00;;;;;;5116447;28;20651;-41
2024/01/12 12:05:09;;;;;;;46.13;41.40;;;20.90;1.00;;;;;;5115686;28;20907;-44
2024/01/12 12:07:37;;;;;;;44.70;40.23;;;21.00;1.00;;;;;;5114800;28;20178;-45
2024/01/12 12:10:03;;;;;;;104.33;94.23;;;21.30;1.00;;;;;;5116522;28;20477;-44
2024/01/12 12:12:28;;;;;;;49.80;44.90;;;21.50;1.00;;;;;;5115690;28;20464;-44
2024/01/12 12:15:01;;;;;;;46.50;42.03;;;22.00;1.00;;;;;;5114544;28;20470;-42
2024/01/12 12:17:27;;;;;;;50.90;46.20;;;22.10;1.00;;;;;;5114084;28;20164;-42
2024/01/12 12:19:53;;;;;;;45.57;41.50;;;22.00;1.00;;;;;;5115652;28;20434;-44
2024/01/12 12:22:19;;;;;;;49.70;45.00;;;21.60;1.00;;;;;;5115455;28;20465;-44
2024/01/12 12:24:44;;;;;;;50.77;46.10;;;21.30;1.00;;;;;;5116314;28;20176;-42
2024/01/12 12:27:11;;;;;;;48.23;43.70;;;20.40;1.00;;;;;;5113026;28;20565;-42
2024/01/12 12:29:40;;;;;;;50.40;45.13;;;19.50;1.00;;;;;;5113825;28;20244;-42